sensor_id;sensor_type;location;lat;lon;timestamp;temperature;humidity
1277;DHT22;631;51.024;13.826;2023-03-24T00:02:24;12.90;99.90
1277;DHT22;631;51.024;13.826;2023-03-24T00:04:50;13.00;99.90
1277;DHT22;631;51.024;13.826;2023-03-24T00:07:17;13.00;99.90
1277;DHT22;631;51.024;13.826;2023-03-24T00:09:44;13.00;99.90
1277;DHT22;631;51.024;13.826;2023-03-24T00:12:11;13.00;99.90
1277;DHT22;631;51.024;13.826;2023-03-24T00:14:39;13.10;99.90
1277;DHT22;631;51.024;13.826;2023-03-24T00:17:08;13.10;99.90
1277;DHT22;631;51.024;13.826;2023-03-24T00:19:42;13.10;99.90
1277;DHT22;631;51.024;13.826;2023-03-24T00:22:11;13.10;99.90
1277;DHT22;631;51.024;13.826;2023-03-24T00:24:40;13.10;99.90
1277;DHT22;631;51.024;13.826;2023-03-24T00:27:07;13.10;99.90
1277;DHT22;631;51.024;13.826;2023-03-24T00:29:33;13.10;99.90
1277;DHT22;631;51.024;13.826;2023-03-24T00:32:00;13.10;99.90
1277;DHT22;631;51.024;13.826;2023-03-24T00:34:26;13.10;99.90
1277;DHT22;631;51.024;13.826;2023-03-24T00:36:52;13.10;99.90
1277;DHT22;631;51.024;13.826;2023-03-24T00:39:19;13.20;99.90
1277;DHT22;631;51.024;13.826;2023-03-24T00:41:46;13.10;99.90
1277;DHT22;631;51.024;13.826;2023-03-24T00:44:15;13.20;99.90
1277;DHT22;631;51.024;13.826;2023-03-24T00:46:48;13.20;99.90
1277;DHT22;631;51.024;13.826;2023-03-24T00:49:22;13.20;99.90
1277;DHT22;631;51.024;13.826;2023-03-24T00:52:19;13.20;99.90
1277;DHT22;631;51.024;13.826;2023-03-24T00:54:47;13.30;99.90
1277;DHT22;631;51.024;13.826;2023-03-24T00:57:14;13.20;99.90
1277;DHT22;631;51.024;13.826;2023-03-24T00:59:49;13.30;99.90
1277;DHT22;631;51.024;13.826;2023-03-24T01:02:19;13.30;99.90
1277;DHT22;631;51.024;13.826;2023-03-24T01:04:50;13.40;99.90
1277;DHT22;631;51.024;13.826;2023-03-24T01:07:19;13.40;99.90
1277;DHT22;631;51.024;13.826;2023-03-24T01:09:45;13.50;99.90
1277;DHT22;631;51.024;13.826;2023-03-24T01:12:17;13.50;99.90
1277;DHT22;631;51.024;13.826;2023-03-24T01:14:44;13.50;99.90
1277;DHT22;631;51.024;13.826;2023-03-24T01:17:10;13.60;99.90
1277;DHT22;631;51.024;13.826;2023-03-24T01:19:36;13.60;99.90
1277;DHT22;631;51.024;13.826;2023-03-24T01:22:02;13.70;99.90
1277;DHT22;631;51.024;13.826;2023-03-24T01:24:28;13.60;99.90
1277;DHT22;631;51.024;13.826;2023-03-24T01:26:53;13.70;99.90
1277;DHT22;631;51.024;13.826;2023-03-24T01:29:19;13.70;99.90
1277;DHT22;631;51.024;13.826;2023-03-24T01:31:45;13.70;99.90
1277;DHT22;631;51.024;13.826;2023-03-24T01:34:10;13.70;99.90
1277;DHT22;631;51.024;13.826;2023-03-24T01:36:36;13.70;99.90
1277;DHT22;631;51.024;13.826;2023-03-24T01:39:02;13.70;99.90
1277;DHT22;631;51.024;13.826;2023-03-24T01:41:34;13.70;99.90
1277;DHT22;631;51.024;13.826;2023-03-24T01:44:00;13.70;99.90
1277;DHT22;631;51.024;13.826;2023-03-24T01:46:26;13.70;99.90
1277;DHT22;631;51.024;13.826;2023-03-24T01:49:00;13.70;99.90
1277;DHT22;631;51.024;13.826;2023-03-24T01:51:30;13.60;99.90
1277;DHT22;631;51.024;13.826;2023-03-24T01:54:07;13.60;99.90
1277;DHT22;631;51.024;13.826;2023-03-24T01:56:35;13.60;99.90
1277;DHT22;631;51.024;13.826;2023-03-24T01:59:17;13.60;99.90
1277;DHT22;631;51.024;13.826;2023-03-24T02:01:43;13.60;99.90
1277;DHT22;631;51.024;13.826;2023-03-24T02:04:10;13.60;99.90
1277;DHT22;631;51.024;13.826;2023-03-24T02:06:39;13.70;99.90
1277;DHT22;631;51.024;13.826;2023-03-24T02:09:07;13.70;99.90
1277;DHT22;631;51.024;13.826;2023-03-24T02:11:34;13.80;99.90
1277;DHT22;631;51.024;13.826;2023-03-24T02:14:01;13.80;99.90
1277;DHT22;631;51.024;13.826;2023-03-24T02:17:06;13.70;99.90
1277;DHT22;631;51.024;13.826;2023-03-24T02:28:04;13.70;99.90
1277;DHT22;631;51.024;13.826;2023-03-24T02:42:21;13.70;99.90
1277;DHT22;631;51.024;13.826;2023-03-24T02:45:16;13.70;99.90
1277;DHT22;631;51.024;13.826;2023-03-24T02:56:09;13.50;99.90
1277;DHT22;631;51.024;13.826;2023-03-24T02:58:41;13.50;99.90
1277;DHT22;631;51.024;13.826;2023-03-24T03:01:17;13.40;99.90
1277;DHT22;631;51.024;13.826;2023-03-24T03:03:50;13.40;99.90
1277;DHT22;631;51.024;13.826;2023-03-24T03:06:27;13.40;99.90
1277;DHT22;631;51.024;13.826;2023-03-24T03:08:56;13.40;99.90
1277;DHT22;631;51.024;13.826;2023-03-24T03:11:23;13.30;99.90
1277;DHT22;631;51.024;13.826;2023-03-24T03:13:57;13.30;99.90
1277;DHT22;631;51.024;13.826;2023-03-24T03:16:34;13.30;99.90
1277;DHT22;631;51.024;13.826;2023-03-24T03:19:11;13.30;99.90
1277;DHT22;631;51.024;13.826;2023-03-24T03:21:41;13.20;99.90
1277;DHT22;631;51.024;13.826;2023-03-24T03:24:14;13.30;99.90
1277;DHT22;631;51.024;13.826;2023-03-24T03:26:42;13.20;99.90
1277;DHT22;631;51.024;13.826;2023-03-24T03:29:15;13.30;99.90
1277;DHT22;631;51.024;13.826;2023-03-24T03:31:46;13.40;99.90
1277;DHT22;631;51.024;13.826;2023-03-24T03:37:12;13.40;99.90
1277;DHT22;631;51.024;13.826;2023-03-24T03:39:50;13.40;99.90
1277;DHT22;631;51.024;13.826;2023-03-24T03:42:17;13.40;99.90
1277;DHT22;631;51.024;13.826;2023-03-24T03:44:43;13.40;99.90
1277;DHT22;631;51.024;13.826;2023-03-24T03:47:10;13.40;99.90
1277;DHT22;631;51.024;13.826;2023-03-24T03:49:36;13.30;99.90
1277;DHT22;631;51.024;13.826;2023-03-24T03:52:02;13.30;99.90
1277;DHT22;631;51.024;13.826;2023-03-24T03:54:29;13.30;99.90
1277;DHT22;631;51.024;13.826;2023-03-24T03:56:56;13.20;99.90
1277;DHT22;631;51.024;13.826;2023-03-24T03:59:42;13.20;99.90
1277;DHT22;631;51.024;13.826;2023-03-24T04:24:23;13.10;99.90
1277;DHT22;631;51.024;13.826;2023-03-24T04:30:22;13.10;99.90
1277;DHT22;631;51.024;13.826;2023-03-24T04:35:33;13.10;99.90
1277;DHT22;631;51.024;13.826;2023-03-24T04:38:08;13.10;99.90
1277;DHT22;631;51.024;13.826;2023-03-24T04:40:36;13.10;99.90
1277;DHT22;631;51.024;13.826;2023-03-24T04:43:09;13.10;99.90
1277;DHT22;631;51.024;13.826;2023-03-24T04:45:38;13.10;99.90
1277;DHT22;631;51.024;13.826;2023-03-24T04:48:05;13.10;99.90
1277;DHT22;631;51.024;13.826;2023-03-24T04:50:40;13.10;99.90
1277;DHT22;631;51.024;13.826;2023-03-24T04:53:08;13.10;99.90
1277;DHT22;631;51.024;13.826;2023-03-24T04:55:57;13.00;99.90
1277;DHT22;631;51.024;13.826;2023-03-24T04:58:25;13.10;99.90
1277;DHT22;631;51.024;13.826;2023-03-24T05:00:51;13.10;99.90
1277;DHT22;631;51.024;13.826;2023-03-24T05:03:18;13.00;99.90
1277;DHT22;631;51.024;13.826;2023-03-24T05:05:46;13.10;99.90
1277;DHT22;631;51.024;13.826;2023-03-24T05:08:12;13.10;99.90
1277;DHT22;631;51.024;13.826;2023-03-24T05:10:38;13.10;99.90
1277;DHT22;631;51.024;13.826;2023-03-24T05:13:05;13.10;99.90
1277;DHT22;631;51.024;13.826;2023-03-24T05:15:31;13.10;99.90
1277;DHT22;631;51.024;13.826;2023-03-24T05:17:57;13.10;99.90
1277;DHT22;631;51.024;13.826;2023-03-24T05:20:23;13.10;99.90
1277;DHT22;631;51.024;13.826;2023-03-24T05:22:49;13.20;99.90
1277;DHT22;631;51.024;13.826;2023-03-24T05:25:16;13.20;99.90
1277;DHT22;631;51.024;13.826;2023-03-24T05:27:42;13.30;99.90
1277;DHT22;631;51.024;13.826;2023-03-24T05:30:09;13.30;99.90
1277;DHT22;631;51.024;13.826;2023-03-24T05:32:35;13.40;99.90
1277;DHT22;631;51.024;13.826;2023-03-24T05:35:00;13.40;99.90
1277;DHT22;631;51.024;13.826;2023-03-24T05:37:26;13.50;99.90
1277;DHT22;631;51.024;13.826;2023-03-24T05:39:52;13.50;99.90
1277;DHT22;631;51.024;13.826;2023-03-24T05:42:19;13.60;99.90
1277;DHT22;631;51.024;13.826;2023-03-24T05:44:45;13.60;99.90
1277;DHT22;631;51.024;13.826;2023-03-24T05:47:11;13.60;99.90
1277;DHT22;631;51.024;13.826;2023-03-24T05:49:43;13.60;99.90
1277;DHT22;631;51.024;13.826;2023-03-24T05:52:11;13.60;99.90
1277;DHT22;631;51.024;13.826;2023-03-24T05:54:36;13.60;99.90
1277;DHT22;631;51.024;13.826;2023-03-24T05:57:04;13.60;99.90
1277;DHT22;631;51.024;13.826;2023-03-24T05:59:32;13.60;99.90
1277;DHT22;631;51.024;13.826;2023-03-24T06:01:58;13.60;99.90
1277;DHT22;631;51.024;13.826;2023-03-24T06:04:24;13.70;99.90
1277;DHT22;631;51.024;13.826;2023-03-24T06:06:54;13.70;99.90
1277;DHT22;631;51.024;13.826;2023-03-24T06:09:20;13.70;99.90
1277;DHT22;631;51.024;13.826;2023-03-24T06:11:46;13.80;99.90
1277;DHT22;631;51.024;13.826;2023-03-24T06:14:12;13.70;99.90
1277;DHT22;631;51.024;13.826;2023-03-24T06:16:37;13.70;99.90
1277;DHT22;631;51.024;13.826;2023-03-24T06:19:04;13.70;99.90
1277;DHT22;631;51.024;13.826;2023-03-24T06:21:31;13.70;99.90
1277;DHT22;631;51.024;13.826;2023-03-24T06:23:57;13.60;99.90
1277;DHT22;631;51.024;13.826;2023-03-24T06:26:24;13.50;99.90
1277;DHT22;631;51.024;13.826;2023-03-24T06:28:50;13.60;99.90
1277;DHT22;631;51.024;13.826;2023-03-24T06:31:19;13.50;99.90
1277;DHT22;631;51.024;13.826;2023-03-24T06:33:47;13.50;99.90
1277;DHT22;631;51.024;13.826;2023-03-24T06:36:14;13.50;99.90
1277;DHT22;631;51.024;13.826;2023-03-24T06:38:40;13.50;99.90
1277;DHT22;631;51.024;13.826;2023-03-24T06:41:06;13.60;99.90
1277;DHT22;631;51.024;13.826;2023-03-24T06:43:32;13.60;99.90
1277;DHT22;631;51.024;13.826;2023-03-24T06:45:59;13.60;99.90
1277;DHT22;631;51.024;13.826;2023-03-24T06:48:25;13.60;99.90
1277;DHT22;631;51.024;13.826;2023-03-24T06:50:52;13.70;99.90
1277;DHT22;631;51.024;13.826;2023-03-24T06:53:18;13.70;99.90
1277;DHT22;631;51.024;13.826;2023-03-24T06:55:49;13.80;99.90
1277;DHT22;631;51.024;13.826;2023-03-24T06:58:15;13.80;99.90
1277;DHT22;631;51.024;13.826;2023-03-24T07:00:42;13.90;99.90
1277;DHT22;631;51.024;13.826;2023-03-24T07:03:11;14.00;99.90
1277;DHT22;631;51.024;13.826;2023-03-24T07:05:42;14.10;99.90
1277;DHT22;631;51.024;13.826;2023-03-24T07:08:09;14.10;99.90
1277;DHT22;631;51.024;13.826;2023-03-24T07:10:37;14.20;99.90
1277;DHT22;631;51.024;13.826;2023-03-24T07:13:07;14.30;99.90
1277;DHT22;631;51.024;13.826;2023-03-24T07:15:33;14.30;99.90
1277;DHT22;631;51.024;13.826;2023-03-24T07:17:59;14.40;99.90
1277;DHT22;631;51.024;13.826;2023-03-24T07:20:25;14.40;99.90
1277;DHT22;631;51.024;13.826;2023-03-24T07:22:55;14.50;99.90
1277;DHT22;631;51.024;13.826;2023-03-24T07:25:21;14.60;99.90
1277;DHT22;631;51.024;13.826;2023-03-24T07:27:47;14.60;99.90
1277;DHT22;631;51.024;13.826;2023-03-24T07:30:13;14.70;99.90
1277;DHT22;631;51.024;13.826;2023-03-24T07:32:39;14.70;99.90
1277;DHT22;631;51.024;13.826;2023-03-24T07:35:06;14.80;99.90
1277;DHT22;631;51.024;13.826;2023-03-24T07:37:32;14.90;99.90
1277;DHT22;631;51.024;13.826;2023-03-24T07:39:58;15.00;99.90
1277;DHT22;631;51.024;13.826;2023-03-24T07:42:24;15.10;99.90
1277;DHT22;631;51.024;13.826;2023-03-24T07:44:50;15.20;99.90
1277;DHT22;631;51.024;13.826;2023-03-24T07:47:16;15.30;99.90
1277;DHT22;631;51.024;13.826;2023-03-24T07:49:41;15.40;99.90
1277;DHT22;631;51.024;13.826;2023-03-24T07:52:07;15.40;99.90
1277;DHT22;631;51.024;13.826;2023-03-24T07:54:33;15.50;99.90
1277;DHT22;631;51.024;13.826;2023-03-24T07:56:59;15.50;99.90
1277;DHT22;631;51.024;13.826;2023-03-24T07:59:25;15.60;99.90
1277;DHT22;631;51.024;13.826;2023-03-24T08:01:52;15.70;99.90
1277;DHT22;631;51.024;13.826;2023-03-24T08:04:17;15.80;99.90
1277;DHT22;631;51.024;13.826;2023-03-24T08:06:43;16.00;99.90
1277;DHT22;631;51.024;13.826;2023-03-24T08:09:09;16.10;99.90
1277;DHT22;631;51.024;13.826;2023-03-24T08:11:35;16.30;99.90
1277;DHT22;631;51.024;13.826;2023-03-24T08:14:01;16.40;99.90
1277;DHT22;631;51.024;13.826;2023-03-24T08:16:27;16.40;99.90
1277;DHT22;631;51.024;13.826;2023-03-24T08:18:52;16.50;99.90
1277;DHT22;631;51.024;13.826;2023-03-24T08:21:23;16.60;99.40
1277;DHT22;631;51.024;13.826;2023-03-24T08:23:49;16.80;98.30
1277;DHT22;631;51.024;13.826;2023-03-24T08:26:14;17.00;97.90
1277;DHT22;631;51.024;13.826;2023-03-24T08:28:40;17.10;96.30
1277;DHT22;631;51.024;13.826;2023-03-24T08:31:06;17.20;96.00
1277;DHT22;631;51.024;13.826;2023-03-24T08:33:32;17.20;95.90
1277;DHT22;631;51.024;13.826;2023-03-24T08:35:58;17.40;95.80
1277;DHT22;631;51.024;13.826;2023-03-24T08:38:25;17.40;95.00
1277;DHT22;631;51.024;13.826;2023-03-24T08:40:59;17.50;95.10
1277;DHT22;631;51.024;13.826;2023-03-24T08:43:28;17.50;94.50
1277;DHT22;631;51.024;13.826;2023-03-24T08:45:55;17.60;95.20
1277;DHT22;631;51.024;13.826;2023-03-24T08:48:21;17.50;94.60
1277;DHT22;631;51.024;13.826;2023-03-24T08:50:47;17.60;94.60
1277;DHT22;631;51.024;13.826;2023-03-24T08:53:13;17.60;94.30
1277;DHT22;631;51.024;13.826;2023-03-24T08:55:39;17.50;94.50
1277;DHT22;631;51.024;13.826;2023-03-24T08:58:11;17.40;94.20
1277;DHT22;631;51.024;13.826;2023-03-24T09:00:37;17.40;94.40
1277;DHT22;631;51.024;13.826;2023-03-24T09:03:03;17.40;94.30
1277;DHT22;631;51.024;13.826;2023-03-24T09:05:31;17.40;94.20
1277;DHT22;631;51.024;13.826;2023-03-24T09:07:57;17.40;94.30
1277;DHT22;631;51.024;13.826;2023-03-24T09:10:25;17.50;95.50
1277;DHT22;631;51.024;13.826;2023-03-24T09:12:51;17.50;95.40
1277;DHT22;631;51.024;13.826;2023-03-24T09:15:16;17.40;95.30
1277;DHT22;631;51.024;13.826;2023-03-24T09:17:42;17.30;95.00
1277;DHT22;631;51.024;13.826;2023-03-24T09:20:12;17.40;95.90
1277;DHT22;631;51.024;13.826;2023-03-24T09:22:39;17.40;96.00
1277;DHT22;631;51.024;13.826;2023-03-24T09:25:06;17.30;96.30
1277;DHT22;631;51.024;13.826;2023-03-24T09:27:32;17.20;96.70
1277;DHT22;631;51.024;13.826;2023-03-24T09:29:57;17.20;97.30
1277;DHT22;631;51.024;13.826;2023-03-24T09:32:23;17.20;95.70
1277;DHT22;631;51.024;13.826;2023-03-24T09:34:48;17.20;95.90
1277;DHT22;631;51.024;13.826;2023-03-24T09:37:14;17.30;96.20
1277;DHT22;631;51.024;13.826;2023-03-24T09:39:40;17.50;95.70
1277;DHT22;631;51.024;13.826;2023-03-24T09:42:06;17.50;95.00
1277;DHT22;631;51.024;13.826;2023-03-24T09:44:43;17.70;94.80
1277;DHT22;631;51.024;13.826;2023-03-24T09:49:56;17.80;93.70
1277;DHT22;631;51.024;13.826;2023-03-24T09:52:28;17.80;94.40
1277;DHT22;631;51.024;13.826;2023-03-24T09:54:57;17.70;94.30
1277;DHT22;631;51.024;13.826;2023-03-24T09:59:52;17.90;94.00
1277;DHT22;631;51.024;13.826;2023-03-24T10:02:20;18.00;93.40
1277;DHT22;631;51.024;13.826;2023-03-24T10:04:46;18.30;93.40
1277;DHT22;631;51.024;13.826;2023-03-24T10:07:25;18.50;92.60
1277;DHT22;631;51.024;13.826;2023-03-24T10:09:56;18.60;91.50
1277;DHT22;631;51.024;13.826;2023-03-24T10:12:36;18.50;91.40
1277;DHT22;631;51.024;13.826;2023-03-24T10:17:54;18.40;90.10
1277;DHT22;631;51.024;13.826;2023-03-24T10:20:32;18.40;90.50
1277;DHT22;631;51.024;13.826;2023-03-24T10:23:23;18.40;90.80
1277;DHT22;631;51.024;13.826;2023-03-24T10:31:37;18.10;89.40
1277;DHT22;631;51.024;13.826;2023-03-24T10:34:08;18.10;88.00
1277;DHT22;631;51.024;13.826;2023-03-24T10:36:35;18.10;87.20
1277;DHT22;631;51.024;13.826;2023-03-24T10:39:02;18.10;86.20
1277;DHT22;631;51.024;13.826;2023-03-24T10:41:28;18.10;84.90
1277;DHT22;631;51.024;13.826;2023-03-24T10:43:56;18.30;85.40
1277;DHT22;631;51.024;13.826;2023-03-24T10:46:29;18.30;85.30
1277;DHT22;631;51.024;13.826;2023-03-24T10:49:14;18.50;84.70
1277;DHT22;631;51.024;13.826;2023-03-24T10:51:45;18.60;84.10
1277;DHT22;631;51.024;13.826;2023-03-24T10:54:26;18.70;83.40
1277;DHT22;631;51.024;13.826;2023-03-24T10:59:45;19.20;83.50
1277;DHT22;631;51.024;13.826;2023-03-24T11:02:22;19.20;81.30
1277;DHT22;631;51.024;13.826;2023-03-24T11:05:00;19.40;81.70
1277;DHT22;631;51.024;13.826;2023-03-24T11:07:38;19.60;80.30
1277;DHT22;631;51.024;13.826;2023-03-24T11:12:38;19.40;79.60
1277;DHT22;631;51.024;13.826;2023-03-24T11:18:13;19.00;79.80
1277;DHT22;631;51.024;13.826;2023-03-24T11:20:42;18.90;82.10
1277;DHT22;631;51.024;13.826;2023-03-24T11:28:39;18.70;79.60
1277;DHT22;631;51.024;13.826;2023-03-24T11:31:09;18.50;81.00
1277;DHT22;631;51.024;13.826;2023-03-24T11:33:44;18.50;81.60
1277;DHT22;631;51.024;13.826;2023-03-24T11:39:13;18.50;82.20
1277;DHT22;631;51.024;13.826;2023-03-24T11:41:49;18.60;82.30
1277;DHT22;631;51.024;13.826;2023-03-24T11:44:23;18.40;81.90
1277;DHT22;631;51.024;13.826;2023-03-24T11:46:56;18.50;81.30
1277;DHT22;631;51.024;13.826;2023-03-24T11:49:26;18.60;81.80
1277;DHT22;631;51.024;13.826;2023-03-24T11:51:54;18.80;81.40
1277;DHT22;631;51.024;13.826;2023-03-24T11:54:34;19.10;80.60
1277;DHT22;631;51.024;13.826;2023-03-24T11:57:10;19.20;80.00
1277;DHT22;631;51.024;13.826;2023-03-24T12:02:32;19.40;78.70
1277;DHT22;631;51.024;13.826;2023-03-24T12:11:06;18.80;79.80
1277;DHT22;631;51.024;13.826;2023-03-24T12:13:38;18.60;81.00
1277;DHT22;631;51.024;13.826;2023-03-24T12:19:28;18.60;81.30
1277;DHT22;631;51.024;13.826;2023-03-24T12:22:31;18.80;81.70
1277;DHT22;631;51.024;13.826;2023-03-24T12:27:44;19.60;78.90
1277;DHT22;631;51.024;13.826;2023-03-24T12:38:41;19.50;78.30
1277;DHT22;631;51.024;13.826;2023-03-24T12:41:27;19.20;78.50
1277;DHT22;631;51.024;13.826;2023-03-24T12:55:47;17.70;83.90
1277;DHT22;631;51.024;13.826;2023-03-24T12:58:25;17.70;84.80
1277;DHT22;631;51.024;13.826;2023-03-24T13:01:06;17.50;85.70
1277;DHT22;631;51.024;13.826;2023-03-24T13:03:46;17.40;86.50
1277;DHT22;631;51.024;13.826;2023-03-24T13:06:33;17.50;87.80
1277;DHT22;631;51.024;13.826;2023-03-24T13:14:26;17.50;87.90
1277;DHT22;631;51.024;13.826;2023-03-24T13:17:01;17.50;88.60
1277;DHT22;631;51.024;13.826;2023-03-24T13:19:28;17.50;89.30
1277;DHT22;631;51.024;13.826;2023-03-24T13:21:55;17.40;90.00
1277;DHT22;631;51.024;13.826;2023-03-24T13:24:21;17.40;90.10
1277;DHT22;631;51.024;13.826;2023-03-24T13:37:19;17.50;90.50
1277;DHT22;631;51.024;13.826;2023-03-24T13:39:48;17.60;91.00
1277;DHT22;631;51.024;13.826;2023-03-24T13:42:44;17.60;90.80
1277;DHT22;631;51.024;13.826;2023-03-24T13:47:51;17.80;90.90
1277;DHT22;631;51.024;13.826;2023-03-24T13:50:19;17.80;91.00
1277;DHT22;631;51.024;13.826;2023-03-24T13:52:47;17.80;90.50
1277;DHT22;631;51.024;13.826;2023-03-24T13:55:26;17.80;90.40
1277;DHT22;631;51.024;13.826;2023-03-24T13:57:57;17.80;90.90
1277;DHT22;631;51.024;13.826;2023-03-24T14:00:25;17.80;90.90
1277;DHT22;631;51.024;13.826;2023-03-24T14:02:53;17.70;90.60
1277;DHT22;631;51.024;13.826;2023-03-24T14:08:09;17.70;90.20
1277;DHT22;631;51.024;13.826;2023-03-24T14:15:34;17.00;96.70
1277;DHT22;631;51.024;13.826;2023-03-24T14:18:15;16.00;99.90
1277;DHT22;631;51.024;13.826;2023-03-24T14:21:04;14.80;99.90
1277;DHT22;631;51.024;13.826;2023-03-24T14:23:45;14.00;99.90
1277;DHT22;631;51.024;13.826;2023-03-24T14:26:30;13.10;99.90
1277;DHT22;631;51.024;13.826;2023-03-24T14:28:59;12.70;99.90
1277;DHT22;631;51.024;13.826;2023-03-24T14:31:31;12.40;99.90
1277;DHT22;631;51.024;13.826;2023-03-24T14:36:33;12.00;99.90
1277;DHT22;631;51.024;13.826;2023-03-24T14:41:47;11.90;99.90
1277;DHT22;631;51.024;13.826;2023-03-24T14:47:25;12.10;99.90
1277;DHT22;631;51.024;13.826;2023-03-24T14:49:53;12.10;99.90
1277;DHT22;631;51.024;13.826;2023-03-24T14:52:34;12.00;99.90
1277;DHT22;631;51.024;13.826;2023-03-24T14:55:04;11.90;99.90
1277;DHT22;631;51.024;13.826;2023-03-24T14:57:34;11.90;99.90
1277;DHT22;631;51.024;13.826;2023-03-24T15:00:16;11.80;99.90
1277;DHT22;631;51.024;13.826;2023-03-24T15:02:55;11.80;99.90
1277;DHT22;631;51.024;13.826;2023-03-24T15:05:30;11.70;99.90
1277;DHT22;631;51.024;13.826;2023-03-24T15:10:59;11.60;99.90
1277;DHT22;631;51.024;13.826;2023-03-24T15:15:58;11.60;99.90
1277;DHT22;631;51.024;13.826;2023-03-24T15:18:25;11.60;99.90
1277;DHT22;631;51.024;13.826;2023-03-24T15:20:52;11.70;99.90
1277;DHT22;631;51.024;13.826;2023-03-24T15:23:23;11.70;99.90
1277;DHT22;631;51.024;13.826;2023-03-24T15:25:50;11.70;99.90
1277;DHT22;631;51.024;13.826;2023-03-24T15:28:21;11.80;99.90
1277;DHT22;631;51.024;13.826;2023-03-24T15:30:48;11.80;99.90
1277;DHT22;631;51.024;13.826;2023-03-24T15:33:14;11.90;99.90
1277;DHT22;631;51.024;13.826;2023-03-24T15:35:42;11.80;99.90
1277;DHT22;631;51.024;13.826;2023-03-24T15:38:17;11.80;99.90
1277;DHT22;631;51.024;13.826;2023-03-24T15:41:01;11.80;99.90
1277;DHT22;631;51.024;13.826;2023-03-24T15:43:27;11.80;99.90
1277;DHT22;631;51.024;13.826;2023-03-24T15:45:55;11.80;99.90
1277;DHT22;631;51.024;13.826;2023-03-24T15:48:23;11.80;99.90
1277;DHT22;631;51.024;13.826;2023-03-24T15:51:06;11.80;99.90
1277;DHT22;631;51.024;13.826;2023-03-24T15:53:56;11.80;99.90
1277;DHT22;631;51.024;13.826;2023-03-24T15:56:30;12.00;99.90
1277;DHT22;631;51.024;13.826;2023-03-24T16:01:34;12.20;99.90
1277;DHT22;631;51.024;13.826;2023-03-24T16:04:10;12.20;99.90
1277;DHT22;631;51.024;13.826;2023-03-24T16:06:41;12.30;99.90
1277;DHT22;631;51.024;13.826;2023-03-24T16:09:12;12.30;99.90
1277;DHT22;631;51.024;13.826;2023-03-24T16:11:38;12.30;99.90
1277;DHT22;631;51.024;13.826;2023-03-24T16:14:25;12.40;99.90
1277;DHT22;631;51.024;13.826;2023-03-24T16:16:56;12.40;99.90
1277;DHT22;631;51.024;13.826;2023-03-24T16:19:23;12.40;99.90
1277;DHT22;631;51.024;13.826;2023-03-24T16:21:49;12.40;99.90
1277;DHT22;631;51.024;13.826;2023-03-24T16:24:15;12.50;99.90
1277;DHT22;631;51.024;13.826;2023-03-24T16:26:42;12.40;99.90
1277;DHT22;631;51.024;13.826;2023-03-24T16:29:17;12.50;99.90
1277;DHT22;631;51.024;13.826;2023-03-24T16:31:48;12.50;99.90
1277;DHT22;631;51.024;13.826;2023-03-24T16:34:15;12.50;99.90
1277;DHT22;631;51.024;13.826;2023-03-24T16:36:43;12.60;99.90
1277;DHT22;631;51.024;13.826;2023-03-24T16:39:13;12.40;99.90
1277;DHT22;631;51.024;13.826;2023-03-24T16:41:40;12.50;99.90
1277;DHT22;631;51.024;13.826;2023-03-24T16:44:06;12.50;99.90
1277;DHT22;631;51.024;13.826;2023-03-24T16:46:33;12.40;99.90
1277;DHT22;631;51.024;13.826;2023-03-24T16:49:03;12.40;99.90
1277;DHT22;631;51.024;13.826;2023-03-24T16:51:29;12.40;99.90
1277;DHT22;631;51.024;13.826;2023-03-24T16:53:55;12.40;99.90
1277;DHT22;631;51.024;13.826;2023-03-24T16:56:21;12.40;99.90
1277;DHT22;631;51.024;13.826;2023-03-24T16:58:48;12.40;99.90
1277;DHT22;631;51.024;13.826;2023-03-24T17:01:16;12.30;99.90
1277;DHT22;631;51.024;13.826;2023-03-24T17:03:56;12.30;99.90
1277;DHT22;631;51.024;13.826;2023-03-24T17:06:22;12.20;99.90
1277;DHT22;631;51.024;13.826;2023-03-24T17:08:48;12.20;99.90
1277;DHT22;631;51.024;13.826;2023-03-24T17:11:32;12.20;99.90
1277;DHT22;631;51.024;13.826;2023-03-24T17:13:59;12.20;99.90
1277;DHT22;631;51.024;13.826;2023-03-24T17:16:34;12.20;99.90
1277;DHT22;631;51.024;13.826;2023-03-24T17:19:04;12.20;99.90
1277;DHT22;631;51.024;13.826;2023-03-24T17:21:33;12.10;99.90
1277;DHT22;631;51.024;13.826;2023-03-24T17:24:00;12.10;99.90
1277;DHT22;631;51.024;13.826;2023-03-24T17:26:26;12.00;99.90
1277;DHT22;631;51.024;13.826;2023-03-24T17:28:52;12.00;99.90
1277;DHT22;631;51.024;13.826;2023-03-24T17:31:18;11.90;99.90
1277;DHT22;631;51.024;13.826;2023-03-24T17:33:43;11.80;99.90
1277;DHT22;631;51.024;13.826;2023-03-24T17:36:14;11.90;99.90
1277;DHT22;631;51.024;13.826;2023-03-24T17:38:40;11.90;99.90
1277;DHT22;631;51.024;13.826;2023-03-24T17:41:08;11.90;99.90
1277;DHT22;631;51.024;13.826;2023-03-24T17:43:34;11.80;99.90
1277;DHT22;631;51.024;13.826;2023-03-24T17:46:00;11.70;99.90
1277;DHT22;631;51.024;13.826;2023-03-24T17:48:27;11.60;99.90
1277;DHT22;631;51.024;13.826;2023-03-24T17:50:54;11.60;99.90
1277;DHT22;631;51.024;13.826;2023-03-24T17:53:21;11.50;99.90
1277;DHT22;631;51.024;13.826;2023-03-24T17:55:51;11.50;99.90
1277;DHT22;631;51.024;13.826;2023-03-24T17:58:18;11.50;99.90
1277;DHT22;631;51.024;13.826;2023-03-24T18:00:43;11.50;99.90
1277;DHT22;631;51.024;13.826;2023-03-24T18:03:09;11.50;99.90
1277;DHT22;631;51.024;13.826;2023-03-24T18:05:35;11.50;99.90
1277;DHT22;631;51.024;13.826;2023-03-24T18:08:00;11.50;99.90
1277;DHT22;631;51.024;13.826;2023-03-24T18:10:26;11.60;99.90
1277;DHT22;631;51.024;13.826;2023-03-24T18:12:53;11.60;99.90
1277;DHT22;631;51.024;13.826;2023-03-24T18:15:18;11.60;99.90
1277;DHT22;631;51.024;13.826;2023-03-24T18:17:44;11.70;99.90
1277;DHT22;631;51.024;13.826;2023-03-24T18:20:10;11.70;99.90
1277;DHT22;631;51.024;13.826;2023-03-24T18:22:39;11.70;99.90
1277;DHT22;631;51.024;13.826;2023-03-24T18:25:07;11.70;99.90
1277;DHT22;631;51.024;13.826;2023-03-24T18:27:33;11.70;99.90
1277;DHT22;631;51.024;13.826;2023-03-24T18:30:00;11.70;99.90
1277;DHT22;631;51.024;13.826;2023-03-24T18:32:25;11.70;99.90
1277;DHT22;631;51.024;13.826;2023-03-24T18:34:51;11.70;99.90
1277;DHT22;631;51.024;13.826;2023-03-24T18:37:17;11.70;99.90
1277;DHT22;631;51.024;13.826;2023-03-24T18:39:43;11.70;99.90
1277;DHT22;631;51.024;13.826;2023-03-24T18:42:09;11.70;99.90
1277;DHT22;631;51.024;13.826;2023-03-24T18:44:35;11.70;99.90
1277;DHT22;631;51.024;13.826;2023-03-24T18:47:00;11.70;99.90
1277;DHT22;631;51.024;13.826;2023-03-24T18:49:26;11.70;99.90
1277;DHT22;631;51.024;13.826;2023-03-24T18:51:52;11.70;99.90
1277;DHT22;631;51.024;13.826;2023-03-24T18:54:17;11.60;99.90
1277;DHT22;631;51.024;13.826;2023-03-24T18:56:43;11.60;99.90
1277;DHT22;631;51.024;13.826;2023-03-24T18:59:09;11.60;99.90
1277;DHT22;631;51.024;13.826;2023-03-24T19:01:36;11.50;99.90
1277;DHT22;631;51.024;13.826;2023-03-24T19:04:02;11.40;99.90
1277;DHT22;631;51.024;13.826;2023-03-24T19:06:28;11.30;99.90